Terminal Aerodrome Forecast
Issued by NWS

Home | Current Version | Previous Version | Text Only | Print | Product List | Glossary On
Versions: 1 2 3 4 5 6 7 8 9 10 11 12 13 14
000
FTUS46 KMFR 170540
TAFLMT
TAF
KLMT 170540Z 1706/1806 08004KT P6SM SCT040 BKN150
     FM171400 15005KT P6SM SCT040 BKN080
     FM171800 16012G20KT P6SM BKN080
     FM172100 18017G28KT P6SM BKN080=

USA.gov is the U.S. government's official web portal to all federal, state and local government web resources and services.